Historyczne dane pomiarowe

Dodano dane terminowe – wersja testowa.

Dane z okresu 1951-2019

Wersja bazy: 1.34 [2019-03-16, lista zmian], aktualizacja planowana na 2019-04-15

Dane meteo z obszaru Polski uzyskane na podstawie danych udostępnionych przez Instytut Meteorologii i Gospodarki Wodnej – Państwowy Instytut Badawczy.

 

Wybierz Datę:    

       

TemperaturaWilgotnośćWiatrCiśnienieOpadyŚniegCzas trwania zjawisk
 Stacja t tx tn tng RH VA  wxwx mslp ppp RRR   cm mm wxwxwxwxwxwxwx
1969-01-14 1.2 3.5 -2.9--- 2.7 3.3---- 0.0-- 8---------
1969-01-15 0.1 3.2 -3.1--- 5.3 5.3---- 0.0-- 7---------
1969-01-16 2.1 4.6 -1.3--- 2.3 3.7---- 0.0-- 7---------
1969-01-17 0.1 2.0 -0.8--- 8.0 4.3---- 0.2-- 6---------
1969-01-18 0.9 1.3 0.0--- 7.0 4.0---- 0.0-- 6---------
1969-01-19 -0.1 1.5 -1.5--- 8.0 4.0---- 0.0-- 4---------
1969-01-20 -8.2 -1.4-10.5--- 4.0 6.7---- 0.0-- 3---------
1969-01-21-12.1 -8.5-14.7--- 0.0 4.0---- 0.0-- 3---------
1969-01-22 -7.4 -3.7-15.7--- 5.3 1.7---- 0.0-- 3---------
1969-01-23 0.9 1.9 -4.3--- 8.0 3.7---- 10.0-- 3---------
1969-01-24 -1.0 1.9 -1.6--- 8.0 4.0---- 2.0-- 4---------
1969-01-25 -3.9 -1.1 -5.6--- 5.3 3.3---- 0.0-- 5---------
1969-01-26-12.7 -3.7-15.7--- 2.3 0.3---- 0.0-- 5---------
1969-01-27-12.4 -7.9-15.2--- 2.7 1.3---- 0.0-- 5---------
1969-01-28 -6.7 -3.6-16.6--- 7.7 1.0---- 0.0-- 5---------
1969-01-29 -1.1 -0.3 -4.6--- 8.0 2.0---- 0.2-- 5---------
1969-01-30 1.3 2.2 -0.4--- 8.0 3.0---- 3.9-- 5---------
1969-01-31 2.4 3.8 1.0--- 8.0 3.0---- 0.0-- 3---------
1969-02-01 1.8 4.0 0.9--- 4.0 3.0---- 3.3-- 2---------
1969-02-02 2.3 6.5 -0.7--- 6.3 2.0---- 0.3-- 2---------
1969-02-03 1.3 3.1 -0.4--- 6.3 1.3---- 0.8------------
1969-02-04 0.2 1.9 -1.1--- 5.0 4.7---- 0.0------------
1969-02-05 -3.6 -0.7 -4.5--- 8.0 4.7---- 0.0------------
1969-02-06 -5.0 -3.3 -7.6--- 7.7 5.7---- 0.0------------
1969-02-07 -2.3 -0.4 -5.0--- 5.0 5.3---- 0.0------------
1969-02-08 -2.9 1.9 -6.6--- 7.7 4.3---- 7.0------------
1969-02-09 -9.1 -3.0 -9.1--- 8.0 1.0---- 9.3-- 12---------
1969-02-10 -4.6 -2.0-11.0--- 8.0 1.3---- 1.1-- 20---------
1969-02-11-14.4 -4.3-19.8--- 3.7 1.0---- 0.0-- 21---------
1969-02-12-19.5-12.1-30.2--- 1.7 1.3---- 0.0-- 21---------
653.9 ms

 

Źródłem pochodzenia danych jest Instytut Meteorologii i Gospodarki Wodnej – Państwowy Instytut Badawczy. Dane Instytutu Meteorologii i Gospodarki Wodnej – Państwowego Instytutu Badawczego zostały przetworzone.

Dane źródłowe można odnaleźć na stronie https://dane.imgw.pl